KLAN/LAN METAR and TAF weather

Enter ICAO airport designator
Station Type Date Time Source
KLAN METAR 2021/09/23 17:21 UTC NOAA

KLAN 231721Z 31012G22KT 1SM R28L/5000V5500FT -RA BR OVC007 09/08 A2974 RMK AO2 CIG 004V011 P0001 T00940083


Station Type Date Time Source
KLAN Decoded METAR 2021/09/23 17:21 UTC NOAA

CAPITAL CITY AIRPORT, MI, United States (KLAN) 42-47N 084-35W 264M
Sep 23, 2021 - 01:21 PM EDT / 2021.09.23 1721 UTC
Wind: from the NW (310 degrees) at 14 MPH (12 KT) gusting to 25 MPH (22 KT) (direction variable):0
Visibility: 1 mile(s):0
Sky conditions: overcast
Weather: light rain; mist
Precipitation last hour: 0.01 inches
Temperature: 48.9 F (9.4 C)
Dew Point: 46.9 F (8.3 C)
Relative Humidity: 92%
Pressure (altimeter): 29.74 in. Hg (1007 hPa)
ob: KLAN 231721Z 31012G22KT 1SM R28L/5000V5500FT -RA BR OVC007 09/08 A2974 RMK AO2 CIG 004V011 P0001 T00940083
cycle: 17

Station Type Date Time Source
KLAN TAF 2021/09/23 18:33 UTC NOAA

TAF KLAN 231730Z 2318/2418 32016G28KT 5SM -RA BR OVC009
FM240000 28011KT 5SM -SHRA OVC009
FM240800 26008KT P6SM OVC018
FM241500 26007KT P6SM FEW250

Example: see airport list